Time;durP1;ratioP1;P1;durP2;ratioP2;P2;SDS_P1;SDS_P2;PMS_P1;PMS_P2;Temp;Humidity;BMP_temperature;BMP_pressure;BME280_temperature;BME280_humidity;BME280_pressure;Samples;Min_cycle;Max_cycle;Signal;HPM_P1;HPM_P2
2021/11/08 00:01:36;;;;;;;39.42;10.07;;;;;;;5.19;100.00;101921.66;5066780;28;20036;-66
2021/11/08 00:04:02;;;;;;;42.42;10.50;;;;;;;5.12;100.00;101914.34;5064224;28;20033;-65
2021/11/08 00:06:28;;;;;;;39.63;11.13;;;;;;;5.10;100.00;101923.88;5065769;28;20017;-66
2021/11/08 00:08:53;;;;;;;39.28;10.73;;;;;;;5.08;100.00;101917.66;5064942;28;20024;-65
2021/11/08 00:11:19;;;;;;;38.60;11.55;;;;;;;5.06;100.00;101924.56;5064510;28;20625;-65
2021/11/08 00:13:45;;;;;;;37.30;11.25;;;;;;;5.01;100.00;101920.84;5066262;28;20473;-64
2021/11/08 00:16:18;;;;;;;36.15;10.57;;;;;;;4.97;100.00;101922.44;5063191;28;20021;-64
2021/11/08 00:19:08;;;;;;;39.58;12.05;;;;;;;4.99;100.00;101914.66;5063468;28;20023;-61
2021/11/08 00:21:34;;;;;;;45.28;12.23;;;;;;;4.94;100.00;101922.31;5062880;28;20032;-64
2021/11/08 00:24:00;;;;;;;39.38;11.50;;;;;;;4.82;100.00;101927.00;5065320;28;20048;-64
2021/11/08 00:26:26;;;;;;;36.15;10.68;;;;;;;4.74;100.00;101915.28;5064208;28;20045;-64
2021/11/08 00:28:53;;;;;;;41.13;11.60;;;;;;;4.59;100.00;101928.56;5063311;28;20194;-64
2021/11/08 00:31:19;;;;;;;38.95;11.43;;;;;;;4.57;100.00;101923.25;5065562;28;20029;-64
2021/11/08 00:33:45;;;;;;;45.60;13.07;;;;;;;4.61;100.00;101919.06;5063301;28;20110;-66
2021/11/08 00:36:10;;;;;;;42.33;12.65;;;;;;;4.54;100.00;101918.78;5064810;28;20079;-63
2021/11/08 00:38:36;;;;;;;40.92;13.02;;;;;;;4.54;100.00;101925.72;5063192;28;20138;-63
2021/11/08 00:41:02;;;;;;;40.72;13.20;;;;;;;4.45;100.00;101928.81;5065696;28;20126;-61
2021/11/08 00:43:28;;;;;;;43.10;13.43;;;;;;;4.40;100.00;101925.09;5063746;28;20387;-70
2021/11/08 00:45:53;;;;;;;43.85;13.68;;;;;;;4.37;100.00;101924.97;5064712;28;20467;-68
2021/11/08 00:48:22;;;;;;;43.40;14.00;;;;;;;4.33;100.00;101930.88;5064858;28;20016;-66
2021/11/08 00:50:49;;;;;;;50.65;15.00;;;;;;;4.45;100.00;101934.06;5063584;28;20056;-68
2021/11/08 00:53:16;;;;;;;41.97;14.88;;;;;;;4.45;100.00;101934.06;5065497;28;20020;-69
2021/11/08 00:55:42;;;;;;;44.17;14.82;;;;;;;4.42;100.00;101928.69;5062344;28;20061;-68
2021/11/08 00:58:14;;;;;;;43.25;14.63;;;;;;;4.38;100.00;101926.75;5062318;28;20033;-69
2021/11/08 01:00:40;;;;;;;46.72;15.10;;;;;;;4.34;100.00;101930.94;5062438;28;20029;-68
2021/11/08 01:03:07;;;;;;;45.70;15.05;;;;;;;4.33;100.00;101936.13;5065958;28;20025;-72
2021/11/08 01:05:33;;;;;;;53.40;16.20;;;;;;;4.40;100.00;101945.13;5062721;28;20120;-68
2021/11/08 01:07:59;;;;;;;45.67;16.20;;;;;;;4.40;100.00;101946.06;5064513;28;20392;-73
2021/11/08 01:10:25;;;;;;;51.55;16.00;;;;;;;4.44;100.00;101948.00;5063925;28;20029;-69
2021/11/08 01:12:50;;;;;;;46.70;15.95;;;;;;;4.36;100.00;101938.88;5063179;28;20029;-75
2021/11/08 01:15:16;;;;;;;49.45;16.58;;;;;;;4.44;100.00;101945.38;5064951;28;20029;-76
2021/11/08 01:17:42;;;;;;;48.30;16.10;;;;;;;4.43;100.00;101951.44;5061922;28;20074;-78
2021/11/08 01:20:10;;;;;;;50.22;16.20;;;;;;;4.40;100.00;101950.38;5061977;28;20028;-75
2021/11/08 01:22:36;;;;;;;49.25;16.02;;;;;;;4.41;100.00;101949.56;5065215;28;20410;-73
2021/11/08 01:25:03;;;;;;;47.10;16.73;;;;;;;4.45;100.00;101947.16;5062265;28;20051;-68
2021/11/08 01:27:36;;;;;;;54.60;17.42;;;;;;;4.40;100.00;101951.28;5064042;28;20029;-73
2021/11/08 01:30:08;;;;;;;51.25;16.88;;;;;;;4.34;100.00;101948.41;5062303;28;20033;-69
2021/11/08 01:32:33;;;;;;;50.58;16.67;;;;;;;4.31;100.00;101945.59;5065041;28;20024;-72
2021/11/08 01:34:59;;;;;;;49.80;16.27;;;;;;;4.31;100.00;101953.44;5062570;28;20027;-66
2021/11/08 01:37:24;;;;;;;51.72;16.92;;;;;;;4.38;100.00;101952.91;5065503;28;20479;-71
2021/11/08 01:39:50;;;;;;;50.75;17.65;;;;;;;4.43;100.00;101953.16;5063095;28;20032;-79
2021/11/08 01:42:15;;;;;;;47.72;16.98;;;;;;;4.53;100.00;101947.53;5064383;28;20600;-74
2021/11/08 01:44:41;;;;;;;52.75;17.73;;;;;;;4.60;100.00;101943.47;5061790;28;20025;-69
2021/11/08 01:47:08;;;;;;;53.75;17.45;;;;;;;4.69;100.00;101938.66;5065305;28;20081;-72
2021/11/08 01:49:35;;;;;;;52.08;17.73;;;;;;;4.81;100.00;101933.09;5061844;28;20048;-70
2021/11/08 01:52:00;;;;;;;49.53;17.33;;;;;;;4.84;100.00;101935.84;5063818;28;20379;-79
2021/11/08 01:54:27;;;;;;;51.08;17.52;;;;;;;4.88;100.00;101940.38;5064628;28;20024;-75
2021/11/08 01:56:54;;;;;;;52.20;17.52;;;;;;;4.91;100.00;101945.78;5063199;28;20032;-70
2021/11/08 01:59:22;;;;;;;50.00;16.88;;;;;;;4.94;100.00;101939.78;5065453;28;20028;-74
2021/11/08 02:01:49;;;;;;;49.30;16.67;;;;;;;4.94;100.00;101943.28;5062313;28;20059;-69
2021/11/08 02:04:14;;;;;;;44.10;15.63;;;;;;;4.97;100.00;101939.91;5064649;28;20028;-69
2021/11/08 02:06:39;;;;;;;47.25;15.90;;;;;;;5.02;100.00;101943.63;5061281;28;20100;-60
2021/11/08 02:09:06;;;;;;;51.08;16.52;;;;;;;5.06;100.00;101942.94;5064221;28;20086;-63
2021/11/08 02:11:35;;;;;;;48.70;16.75;;;;;;;5.10;100.00;101939.63;5062111;28;20375;-73
2021/11/08 02:14:02;;;;;;;44.20;14.90;;;;;;;5.11;100.00;101941.41;5063661;28;20468;-69
2021/11/08 02:16:28;;;;;;;45.15;15.55;;;;;;;5.10;100.00;101950.09;5062677;28;20059;-77
2021/11/08 02:18:55;;;;;;;49.60;16.00;;;;;;;5.06;100.00;101956.03;5062528;28;20477;-74
2021/11/08 02:21:20;;;;;;;46.05;15.63;;;;;;;5.03;100.00;101956.78;5063428;28;20032;-68
2021/11/08 02:23:48;;;;;;;49.42;16.40;;;;;;;4.94;100.00;101942.41;5061694;28;20016;-61
2021/11/08 02:26:18;;;;;;;45.05;15.40;;;;;;;4.91;100.00;101935.28;5064169;28;20068;-69
2021/11/08 02:28:49;;;;;;;49.53;15.80;;;;;;;4.83;100.00;101937.53;5061131;28;20036;-72
2021/11/08 02:31:18;;;;;;;50.33;16.73;;;;;;;4.82;100.00;101946.25;5064309;28;20020;-67
2021/11/08 02:33:44;;;;;;;52.40;15.85;;;;;;;4.84;100.00;101938.47;5061018;28;20533;-76
2021/11/08 02:36:10;;;;;;;51.88;15.75;;;;;;;4.84;100.00;101944.56;5064150;28;20024;-80
2021/11/08 02:38:41;;;;;;;52.25;15.77;;;;;;;4.85;100.00;101949.00;5060424;28;20033;-75
2021/11/08 02:41:07;;;;;;;54.22;16.65;;;;;;;4.90;100.00;101951.81;5060942;28;20017;-61
2021/11/08 02:43:33;;;;;;;50.75;16.55;;;;;;;4.96;100.00;101956.44;5063587;28;20029;-67
2021/11/08 02:46:24;;;;;;;52.30;16.25;;;;;;;4.98;100.00;101952.16;5064076;28;20154;-78
2021/11/08 02:48:46;;;;;;;45.80;15.30;;;;;;;4.98;100.00;101954.78;5064811;28;20041;-73
2021/11/08 02:51:17;;;;;;;49.92;15.95;;;;;;;4.96;100.00;101957.34;5068257;28;20169;-73
2021/11/08 02:53:46;;;;;;;46.95;15.20;;;;;;;4.93;100.00;101959.81;5064700;28;20461;-74
2021/11/08 02:56:13;;;;;;;48.47;15.35;;;;;;;4.87;100.00;101959.56;5064746;28;20128;-68
2021/11/08 02:58:41;;;;;;;51.45;16.05;;;;;;;4.81;100.00;101957.53;5064817;28;20033;-77
2021/11/08 03:01:07;;;;;;;48.78;15.60;;;;;;;4.73;100.00;101951.03;5067834;28;20053;-69
2021/11/08 03:03:38;;;;;;;48.28;15.75;;;;;;;4.65;100.00;101949.81;5065056;28;20104;-76
2021/11/08 03:06:11;;;;;;;50.67;16.48;;;;;;;4.58;100.00;101948.63;5067512;28;20361;-77
2021/11/08 03:08:37;;;;;;;55.53;17.40;;;;;;;4.58;100.00;101950.34;5064457;28;20025;-64
2021/11/08 03:11:03;;;;;;;45.30;16.15;;;;;;;4.50;100.00;101950.91;5067327;28;20505;-75
2021/11/08 03:13:33;;;;;;;57.10;16.67;;;;;;;4.45;100.00;101949.78;5065790;28;20043;-75
2021/11/08 03:16:20;;;;;;;49.08;16.75;;;;;;;4.39;100.00;101954.72;5066206;28;20090;-80
2021/11/08 03:18:46;;;;;;;52.88;17.40;;;;;;;4.33;100.00;101964.91;5064785;28;20376;-72
2021/11/08 03:21:17;;;;;;;47.53;15.93;;;;;;;4.24;100.00;101959.22;5067878;28;20035;-76
2021/11/08 03:23:46;;;;;;;53.60;17.05;;;;;;;4.22;100.00;101959.16;5067829;28;20375;-79
2021/11/08 03:26:38;;;;;;;53.30;17.33;;;;;;;4.23;100.00;101963.56;5064160;28;20499;-66
2021/11/08 03:29:00;;;;;;;57.80;17.92;;;;;;;4.15;100.00;101965.81;5066349;28;20198;-75
2021/11/08 03:31:28;;;;;;;55.15;17.65;;;;;;;4.09;100.00;101960.31;5065738;28;20472;-80
2021/11/08 03:33:54;;;;;;;61.50;19.00;;;;;;;4.15;100.00;101957.06;5065416;28;20057;-81
2021/11/08 03:36:19;;;;;;;58.03;19.60;;;;;;;4.17;100.00;101969.41;5066682;28;20083;-75
2021/11/08 03:38:45;;;;;;;60.60;20.33;;;;;;;4.22;100.00;101966.13;5064111;28;20044;-75
2021/11/08 03:41:10;;;;;;;55.15;19.65;;;;;;;4.22;100.00;101972.22;5067145;28;20044;-81
2021/11/08 03:43:37;;;;;;;56.00;19.83;;;;;;;4.22;100.00;101973.97;5064606;28;20028;-77
2021/11/08 03:46:03;;;;;;;56.53;20.10;;;;;;;4.27;100.00;101964.63;5066543;28;20079;-60
2021/11/08 03:48:29;;;;;;;58.47;19.58;;;;;;;4.27;100.00;101975.09;5065004;28;20036;-62
2021/11/08 03:50:54;;;;;;;55.95;20.45;;;;;;;4.24;100.00;101967.06;5065315;28;20021;-63
2021/11/08 03:53:20;;;;;;;59.45;20.02;;;;;;;4.23;100.00;101968.81;5066010;28;20016;-62
2021/11/08 03:55:47;;;;;;;57.95;20.92;;;;;;;4.24;100.00;101980.16;5063644;28;20033;-60
2021/11/08 03:58:16;;;;;;;57.47;21.77;;;;;;;4.22;100.00;101973.97;5065773;28;20021;-61
2021/11/08 04:00:42;;;;;;;61.63;20.80;;;;;;;4.25;100.00;101982.88;5063628;28;20435;-61
2021/11/08 04:03:10;;;;;;;53.53;20.98;;;;;;;4.30;100.00;101990.94;5066608;28;20020;-60
2021/11/08 04:05:37;;;;;;;57.25;20.45;;;;;;;4.37;100.00;101985.19;5062846;28;20148;-65
2021/11/08 04:08:07;;;;;;;52.90;20.73;;;;;;;4.41;100.00;101989.72;5064202;28;20028;-60
2021/11/08 04:10:33;;;;;;;59.00;21.20;;;;;;;4.47;100.00;101987.41;5065633;28;20025;-62
2021/11/08 04:13:05;;;;;;;54.47;20.08;;;;;;;4.49;100.00;101987.50;5064763;28;20052;-64
2021/11/08 04:15:37;;;;;;;56.75;20.95;;;;;;;4.54;100.00;102001.69;5065459;28;20076;-60
2021/11/08 04:18:09;;;;;;;55.55;20.42;;;;;;;4.60;100.00;101993.22;5063980;28;20063;-62
2021/11/08 04:20:36;;;;;;;50.90;19.73;;;;;;;4.63;100.00;101991.66;5065978;28;20033;-62
2021/11/08 04:23:03;;;;;;;53.95;20.48;;;;;;;4.67;100.00;101995.31;5064195;28;20074;-61
2021/11/08 04:25:28;;;;;;;54.70;19.65;;;;;;;4.71;100.00;101992.00;5064824;28;20060;-64
2021/11/08 04:27:54;;;;;;;51.78;18.75;;;;;;;4.72;100.00;101989.47;5064991;28;20023;-63
2021/11/08 04:30:21;;;;;;;46.17;18.45;;;;;;;4.75;100.00;101993.03;5064163;28;20029;-79
2021/11/08 04:35:21;;;;;;;53.53;19.10;;;;;;;4.81;100.00;101982.88;5063225;28;20041;-78
2021/11/08 04:38:07;;;;;;;51.27;19.20;;;;;;;4.83;100.00;101989.06;5065969;28;20130;-80
2021/11/08 04:41:03;;;;;;;52.72;19.48;;;;;;;4.86;100.00;101984.88;5065566;28;20272;-80
2021/11/08 04:43:48;;;;;;;48.65;18.92;;;;;;;4.89;100.00;101979.75;5063363;28;20041;-81
2021/11/08 04:49:05;;;;;;;52.55;18.70;;;;;;;4.85;100.00;101992.66;5064771;28;20066;-81
2021/11/08 04:54:07;;;;;;;48.35;18.27;;;;;;;4.86;100.00;101992.72;5064438;28;20104;-80
2021/11/08 05:31:50;;;;;;;51.72;20.40;;;;;;;4.85;100.00;102025.00;5000513;28;20030;-80
2021/11/08 05:34:16;;;;;;;52.42;19.75;;;;;;;4.84;100.00;102020.56;5003312;28;20033;-74
2021/11/08 05:36:43;;;;;;;52.22;20.40;;;;;;;4.84;100.00;102031.03;5000037;28;20042;-74
2021/11/08 05:39:09;;;;;;;51.97;20.30;;;;;;;4.85;100.00;102025.00;5003353;28;20030;-69
2021/11/08 05:41:35;;;;;;;53.97;20.90;;;;;;;4.86;100.00;102026.78;5000720;28;20524;-79
2021/11/08 05:44:03;;;;;;;53.22;20.45;;;;;;;4.88;100.00;102024.25;5002008;28;20125;-70
2021/11/08 05:46:29;;;;;;;53.28;20.42;;;;;;;4.89;100.00;102028.63;5001626;28;20482;-73
2021/11/08 05:48:55;;;;;;;54.95;20.95;;;;;;;4.91;100.00;102031.31;5021506;28;20032;-79
2021/11/08 05:51:20;;;;;;;53.70;20.73;;;;;;;4.92;100.00;102033.13;5061886;28;20040;-69
2021/11/08 05:53:47;;;;;;;49.10;19.80;;;;;;;4.95;100.00;102035.88;5064996;28;20016;-81
2021/11/08 06:13:05;;;;;;;51.30;20.70;;;;;;;5.00;100.00;102044.88;5061944;28;20043;-77
2021/11/08 06:50:48;;;;;;;51.83;22.10;;;;;;;5.23;100.00;102080.03;5047698;28;20056;-63
2021/11/08 06:53:18;;;;;;;55.08;21.98;;;;;;;5.24;100.00;102079.16;5048640;28;20132;-62
2021/11/08 06:55:48;;;;;;;51.88;22.13;;;;;;;5.24;100.00;102087.03;5048759;28;20036;-63
2021/11/08 06:58:17;;;;;;;46.55;21.88;;;;;;;5.27;100.00;102083.66;5048176;28;20536;-62
2021/11/08 07:00:45;;;;;;;52.50;23.05;;;;;;;5.24;100.00;102085.31;5045682;28;20414;-62
2021/11/08 07:03:11;;;;;;;49.30;22.08;;;;;;;5.26;100.00;102085.41;5041267;28;20124;-62
2021/11/08 07:05:36;;;;;;;49.50;22.17;;;;;;;5.27;100.00;102086.28;5045032;28;20032;-62
2021/11/08 07:08:02;;;;;;;60.33;23.13;;;;;;;5.27;100.00;102091.53;5046734;28;20041;-62
2021/11/08 07:10:28;;;;;;;52.40;22.85;;;;;;;5.27;100.00;102094.16;5026119;28;20045;-62
2021/11/08 07:12:53;;;;;;;53.35;22.92;;;;;;;5.29;100.00;102090.78;5047923;28;20027;-62
2021/11/08 07:15:20;;;;;;;54.05;22.33;;;;;;;5.34;100.00;102096.22;5048398;28;20116;-63
2021/11/08 07:17:49;;;;;;;54.58;22.05;;;;;;;5.35;100.00;102105.91;5048252;28;20033;-62
2021/11/08 07:20:14;;;;;;;48.90;21.67;;;;;;;5.38;100.00;102100.78;5048259;28;20020;-62
2021/11/08 07:22:39;;;;;;;51.83;21.58;;;;;;;5.39;100.00;102102.59;5048703;28;20464;-63
2021/11/08 07:25:05;;;;;;;49.47;22.10;;;;;;;5.40;100.00;102109.59;5048262;28;21060;-62
2021/11/08 07:27:31;;;;;;;49.40;21.08;;;;;;;5.44;100.00;102115.91;5057222;28;20119;-64
2021/11/08 07:29:57;;;;;;;44.67;21.70;;;;;;;5.47;100.00;102110.81;5070652;28;20112;-61
2021/11/08 07:32:24;;;;;;;46.55;20.63;;;;;;;5.48;100.00;102113.50;5072739;28;20081;-62
2021/11/08 07:34:53;;;;;;;46.95;21.63;;;;;;;5.51;100.00;102108.38;5074293;28;20082;-61
2021/11/08 07:37:18;;;;;;;51.88;21.88;;;;;;;5.55;100.00;102119.94;5074049;28;20081;-61
2021/11/08 07:39:44;;;;;;;49.88;20.60;;;;;;;5.58;100.00;102117.44;5074245;28;20029;-62
2021/11/08 07:42:09;;;;;;;49.17;20.75;;;;;;;5.62;100.00;102115.84;5074211;28;20522;-62
2021/11/08 07:44:35;;;;;;;48.15;20.33;;;;;;;5.67;100.00;102119.56;5074311;28;20036;-62
2021/11/08 07:47:00;;;;;;;56.95;21.48;;;;;;;5.73;100.00;102115.47;5072689;28;20033;-63
2021/11/08 07:49:26;;;;;;;45.03;19.98;;;;;;;5.74;100.00;102122.53;5066795;28;20031;-61
2021/11/08 07:51:51;;;;;;;54.00;20.52;;;;;;;5.78;100.00;102127.91;5072092;28;20106;-61
2021/11/08 07:54:17;;;;;;;56.15;21.50;;;;;;;5.79;100.00;102135.84;5069938;28;20120;-61
2021/11/08 07:56:44;;;;;;;47.92;20.23;;;;;;;5.80;100.00;102137.66;5073787;28;20025;-60
2021/11/08 07:59:10;;;;;;;54.13;20.92;;;;;;;5.83;100.00;102131.66;5073785;28;20407;-60
2021/11/08 08:01:35;;;;;;;50.60;20.65;;;;;;;5.83;100.00;102132.53;5073923;28;20017;-60
2021/11/08 08:04:00;;;;;;;51.08;20.08;;;;;;;5.85;100.00;102141.38;5074177;28;20104;-61
2021/11/08 08:06:26;;;;;;;47.42;19.67;;;;;;;5.86;100.00;102137.03;5073584;28;20017;-60
2021/11/08 08:08:52;;;;;;;44.75;19.50;;;;;;;5.88;100.00;102138.91;5073827;28;20032;-60
2021/11/08 08:11:18;;;;;;;48.40;19.58;;;;;;;5.91;100.00;102140.75;5073800;28;20028;-61
2021/11/08 08:13:44;;;;;;;49.22;18.48;;;;;;;5.93;100.00;102139.97;5073604;28;20029;-60
2021/11/08 08:16:14;;;;;;;47.97;18.98;;;;;;;5.97;100.00;102145.38;5069506;28;20364;-60
2021/11/08 08:18:40;;;;;;;51.13;19.05;;;;;;;6.03;100.00;102145.66;5072262;28;20052;-61
2021/11/08 08:21:07;;;;;;;50.03;18.88;;;;;;;6.07;100.00;102152.84;5073606;28;20161;-60
2021/11/08 08:23:33;;;;;;;44.17;17.75;;;;;;;6.11;100.00;102146.91;5068346;28;20032;-60
2021/11/08 08:25:59;;;;;;;46.28;18.27;;;;;;;6.14;100.00;102154.03;5064132;28;20068;-60
2021/11/08 08:28:24;;;;;;;45.95;18.67;;;;;;;6.22;100.00;102157.88;5067086;28;20078;-60
2021/11/08 08:30:49;;;;;;;46.60;18.10;;;;;;;6.27;100.00;102157.22;5066394;28;20022;-60
2021/11/08 08:33:16;;;;;;;45.58;18.05;;;;;;;6.37;100.00;102155.91;5065275;28;20025;-60
2021/11/08 08:35:41;;;;;;;45.92;18.13;;;;;;;6.42;100.00;102166.59;5067157;28;20025;-60
2021/11/08 08:38:12;;;;;;;47.92;18.48;;;;;;;6.48;100.00;102163.34;5064567;28;20040;-59
2021/11/08 08:40:38;;;;;;;42.78;18.13;;;;;;;6.57;100.00;102171.63;5068671;28;20021;-60
2021/11/08 08:43:04;;;;;;;47.60;19.98;;;;;;;6.68;100.00;102169.44;5072034;28;20112;-60
2021/11/08 08:45:30;;;;;;;43.63;19.60;;;;;;;6.89;100.00;102179.94;5072469;28;20111;-60
2021/11/08 08:47:56;;;;;;;44.75;19.65;;;;;;;7.00;100.00;102188.25;5071438;28;20470;-60
2021/11/08 08:50:21;;;;;;;44.70;19.42;;;;;;;7.09;100.00;102179.00;5072695;28;20103;-60
2021/11/08 08:52:48;;;;;;;45.78;19.00;;;;;;;7.18;100.00;102183.75;5071981;28;20467;-60
2021/11/08 08:55:13;;;;;;;43.72;19.13;;;;;;;7.19;100.00;102192.50;5073020;28;20056;-60
2021/11/08 08:57:40;;;;;;;46.75;19.33;;;;;;;7.22;100.00;102196.16;5072107;28;20063;-60
2021/11/08 09:00:09;;;;;;;41.17;18.90;;;;;;;7.35;100.00;102197.53;5073037;28;20021;-60
2021/11/08 09:02:35;;;;;;;43.47;18.60;;;;;;;7.42;100.00;102206.56;5071468;28;20379;-60
2021/11/08 09:05:00;;;;;;;44.50;18.83;;;;;;;7.53;100.00;102205.25;5072493;28;20021;-60
2021/11/08 09:07:25;;;;;;;42.55;16.20;;;;;;;7.57;100.00;102201.91;5072448;28;20041;-60
2021/11/08 09:09:51;;;;;;;39.05;15.80;;;;;;;7.57;100.00;102203.63;5072785;28;20341;-63
2021/11/08 09:12:16;;;;;;;40.65;15.77;;;;;;;7.57;100.00;102209.81;5072270;28;20036;-62
2021/11/08 09:14:41;;;;;;;41.95;15.68;;;;;;;7.61;100.00;102216.97;5072434;28;20035;-61
2021/11/08 09:17:08;;;;;;;43.08;17.10;;;;;;;7.49;100.00;102221.75;5071912;28;20044;-63
2021/11/08 09:19:33;;;;;;;44.83;16.80;;;;;;;7.45;100.00;102215.47;5072406;28;20372;-61
2021/11/08 09:21:59;;;;;;;43.33;16.63;;;;;;;7.43;100.00;102225.06;5072278;28;20016;-61
2021/11/08 09:24:25;;;;;;;39.60;15.98;;;;;;;7.40;100.00;102216.16;5071970;28;20128;-61
2021/11/08 09:26:51;;;;;;;40.92;16.75;;;;;;;7.38;100.00;102217.81;5071752;28;20032;-61
2021/11/08 09:29:20;;;;;;;40.58;16.65;;;;;;;7.37;100.00;102221.28;5072483;28;20047;-61
2021/11/08 09:31:47;;;;;;;44.20;17.33;;;;;;;7.37;100.00;102223.91;5069212;28;20024;-61
2021/11/08 09:34:16;;;;;;;41.25;16.55;;;;;;;7.40;100.00;102221.41;5065446;28;20020;-61
2021/11/08 09:36:42;;;;;;;45.35;16.98;;;;;;;7.42;100.00;102225.00;5071434;28;20036;-61
2021/11/08 09:39:23;;;;;;;43.33;16.50;;;;;;;7.43;100.00;102218.91;5070662;28;20028;-76
2021/11/08 09:41:50;;;;;;;47.15;17.50;;;;;;;7.43;100.00;102226.78;5070441;28;20103;-76
2021/11/08 09:44:16;;;;;;;40.95;17.23;;;;;;;7.47;100.00;102219.06;5072337;28;20036;-70
2021/11/08 09:46:42;;;;;;;42.25;16.95;;;;;;;7.55;100.00;102206.19;5071769;28;20028;-74
2021/11/08 09:49:09;;;;;;;49.45;17.38;;;;;;;7.61;100.00;102211.69;5068307;28;20029;-76
2021/11/08 09:51:41;;;;;;;42.53;16.40;;;;;;;7.62;100.00;102210.88;5063554;28;20032;-74
2021/11/08 09:54:06;;;;;;;42.40;17.08;;;;;;;7.65;100.00;102210.09;5062306;28;20025;-74
2021/11/08 09:56:33;;;;;;;41.72;16.92;;;;;;;7.70;100.00;102203.25;5060825;28;20032;-68
2021/11/08 09:59:00;;;;;;;43.13;16.58;;;;;;;7.73;100.00;102205.09;5059638;28;20052;-77
2021/11/08 10:01:27;;;;;;;44.00;16.13;;;;;;;7.74;100.00;102206.91;5063105;28;20475;-71
2021/11/08 10:03:55;;;;;;;44.38;16.55;;;;;;;7.77;100.00;102215.81;5063038;28;20059;-76
2021/11/08 10:06:21;;;;;;;38.75;15.10;;;;;;;7.81;100.00;102215.09;5062258;28;20021;-75
2021/11/08 10:08:48;;;;;;;40.75;15.70;;;;;;;7.84;100.00;102204.66;5064588;28;20028;-76
2021/11/08 10:11:16;;;;;;;41.58;16.25;;;;;;;7.89;100.00;102204.84;5061923;28;20031;-61
2021/11/08 10:13:42;;;;;;;42.65;15.95;;;;;;;7.97;100.00;102207.78;5067598;28;20452;-60
2021/11/08 10:16:32;;;;;;;39.25;15.70;;;;;;;8.04;100.00;102209.78;5066396;28;20028;-63
2021/11/08 10:19:00;;;;;;;42.72;16.50;;;;;;;8.05;100.00;102210.69;5067000;28;20059;-61
2021/11/08 10:21:42;;;;;;;40.33;16.50;;;;;;;8.08;100.00;102203.81;5066008;28;20028;-61
2021/11/08 10:24:11;;;;;;;40.90;15.60;;;;;;;8.10;100.00;102204.75;5065714;28;20025;-60
2021/11/08 10:26:38;;;;;;;40.70;16.00;;;;;;;8.14;100.00;102208.38;5065644;28;20390;-60
2021/11/08 10:29:13;;;;;;;39.85;16.40;;;;;;;8.19;100.00;102204.16;5064410;28;20371;-60
2021/11/08 10:31:44;;;;;;;38.92;15.73;;;;;;;8.24;100.00;102196.44;5066047;28;20012;-61
2021/11/08 10:34:11;;;;;;;38.87;16.33;;;;;;;8.27;100.00;102200.09;5065009;28;20498;-61
2021/11/08 10:36:38;;;;;;;39.67;15.75;;;;;;;8.33;100.00;102202.94;5063295;28;20290;-62
2021/11/08 10:39:06;;;;;;;39.72;16.27;;;;;;;8.40;100.00;102201.38;5061987;28;20025;-60
2021/11/08 10:41:36;;;;;;;39.72;15.73;;;;;;;8.51;100.00;102207.97;5063425;28;20025;-61
2021/11/08 10:44:13;;;;;;;39.60;15.48;;;;;;;8.58;100.00;102201.19;5071204;28;20025;-61
2021/11/08 10:46:48;;;;;;;39.78;15.85;;;;;;;8.58;100.00;102213.44;5071080;28;20379;-61
2021/11/08 10:49:16;;;;;;;38.30;14.52;;;;;;;8.60;100.00;102201.22;5070497;28;20383;-60
2021/11/08 10:51:44;;;;;;;41.38;15.20;;;;;;;8.73;100.00;102212.22;5070989;28;20495;-61
2021/11/08 10:54:13;;;;;;;41.28;14.98;;;;;;;8.76;97.90;102214.06;5068227;28;20025;-61
2021/11/08 10:56:48;;;;;;;38.58;14.43;;;;;;;8.75;98.42;102214.03;5070845;28;20028;-61
2021/11/08 10:59:16;;;;;;;39.30;14.63;;;;;;;8.75;98.15;102208.75;5068437;28;20021;-61
2021/11/08 11:01:51;;;;;;;39.53;13.35;;;;;;;8.78;98.55;102214.13;5071309;28;20017;-61
2021/11/08 11:04:18;;;;;;;37.25;14.27;;;;;;;8.76;97.54;102214.06;5070596;28;20036;-63
2021/11/08 11:06:47;;;;;;;39.13;14.10;;;;;;;8.87;99.30;102214.44;5072469;28;20052;-64
2021/11/08 11:09:22;;;;;;;37.15;14.00;;;;;;;8.95;98.89;102199.75;5074843;28;20017;-62
2021/11/08 11:12:10;;;;;;;31.98;11.80;;;;;;;9.00;94.20;102206.09;5075096;28;20420;-64
2021/11/08 11:14:45;;;;;;;38.40;12.57;;;;;;;9.06;95.69;102203.63;5071416;28;20375;-65
2021/11/08 11:17:16;;;;;;;37.22;13.07;;;;;;;9.14;95.63;102200.34;5067476;28;20442;-63
2021/11/08 11:19:42;;;;;;;33.78;11.80;;;;;;;9.16;95.51;102198.66;5064552;28;20032;-62
2021/11/08 11:22:11;;;;;;;39.42;13.15;;;;;;;9.20;92.55;102203.19;5066284;28;20033;-63
2021/11/08 11:24:46;;;;;;;35.53;12.75;;;;;;;9.28;93.40;102199.03;5065016;28;20033;-62
2021/11/08 11:27:28;;;;;;;34.88;12.40;;;;;;;9.39;93.10;102194.09;5066576;28;20055;-62
2021/11/08 11:30:26;;;;;;;34.40;11.90;;;;;;;9.53;91.42;102199.81;5064296;28;20029;-63
2021/11/08 11:33:09;;;;;;;36.03;11.95;;;;;;;9.60;91.87;102197.38;5070970;28;20373;-62
2021/11/08 11:35:48;;;;;;;34.38;11.30;;;;;;;9.64;89.69;102198.38;5073857;28;20024;-72
2021/11/08 11:38:21;;;;;;;36.67;12.57;;;;;;;9.75;90.46;102191.66;5072910;28;20428;-81
2021/11/08 11:41:05;;;;;;;34.70;11.63;;;;;;;9.98;87.10;102187.91;5069002;28;20475;-78
2021/11/08 11:43:37;;;;;;;34.60;11.30;;;;;;;10.12;84.58;102194.47;5066769;28;20024;-73
2021/11/08 11:46:07;;;;;;;33.00;11.30;;;;;;;10.26;85.66;102189.53;5073348;28;20460;-73
2021/11/08 11:48:35;;;;;;;32.35;10.02;;;;;;;10.31;83.11;102201.16;5074551;28;20051;-79
2021/11/08 11:51:03;;;;;;;35.47;11.40;;;;;;;10.69;84.19;102198.66;5074133;28;20025;-75
2021/11/08 11:53:31;;;;;;;32.85;11.15;;;;;;;10.91;80.56;102210.66;5074412;28;20103;-78
2021/11/08 11:55:57;;;;;;;34.50;10.82;;;;;;;11.19;79.90;102210.44;5072565;28;20024;-73
2021/11/08 11:58:22;;;;;;;37.42;11.10;;;;;;;11.37;78.56;102209.94;5074221;28;20103;-79
2021/11/08 12:00:51;;;;;;;33.50;10.45;;;;;;;11.70;77.63;102215.09;5073925;28;20025;-78
2021/11/08 12:03:17;;;;;;;32.17;10.63;;;;;;;11.86;73.88;102201.31;5073989;28;20028;-76
2021/11/08 12:05:44;;;;;;;34.17;10.77;;;;;;;12.38;72.82;102204.13;5073808;28;20043;-76
2021/11/08 12:08:12;;;;;;;33.80;10.10;;;;;;;13.57;68.52;102205.13;5072215;28;20498;-74
2021/11/08 12:10:55;;;;;;;35.33;10.10;;;;;;;13.86;68.43;102201.97;5069903;28;20028;-80
2021/11/08 12:13:23;;;;;;;29.77;9.40;;;;;;;14.47;65.35;102201.75;5073434;28;20021;-75
2021/11/08 12:15:50;;;;;;;28.02;8.73;;;;;;;15.76;61.06;102191.16;5073429;28;20036;-74
2021/11/08 12:18:17;;;;;;;28.70;8.35;;;;;;;16.78;55.86;102191.38;5072608;28;20106;-75
2021/11/08 12:20:54;;;;;;;30.92;9.18;;;;;;;17.39;52.49;102201.13;5074071;28;20020;-83
2021/11/08 12:23:30;;;;;;;30.08;8.27;;;;;;;17.33;53.73;102193.13;5073529;28;20024;-80
2021/11/08 12:25:55;;;;;;;29.55;8.10;;;;;;;17.90;49.83;102190.28;5071634;28;20049;-79
2021/11/08 12:28:24;;;;;;;28.20;7.97;;;;;;;18.15;50.71;102194.63;5073394;28;20036;-75
2021/11/08 12:30:55;;;;;;;29.67;7.82;;;;;;;18.97;47.68;102200.25;5073741;28;20024;-76
2021/11/08 12:33:34;;;;;;;28.37;8.20;;;;;;;18.53;48.35;102204.19;5073384;28;20036;-78
2021/11/08 12:36:06;;;;;;;29.25;7.82;;;;;;;18.17;50.33;102203.50;5072023;28;20315;-78
2021/11/08 12:38:34;;;;;;;29.73;7.97;;;;;;;16.48;50.79;102200.25;5068663;28;20028;-79
2021/11/08 12:41:14;;;;;;;33.00;8.70;;;;;;;15.47;56.25;102209.66;5063995;28;20013;-75
2021/11/08 12:43:47;;;;;;;28.85;8.30;;;;;;;14.97;56.14;102209.34;5065750;28;20115;-76
2021/11/08 12:46:21;;;;;;;28.83;8.75;;;;;;;14.50;59.04;102195.56;5067314;28;20024;-75
2021/11/08 12:48:49;;;;;;;30.60;8.50;;;;;;;14.17;57.80;102192.59;5064221;28;20028;-80
2021/11/08 12:51:17;;;;;;;28.92;7.35;;;;;;;15.04;56.18;102193.41;5064872;28;20024;-76